createdAt,value
2018-06-20T00:00:40.292Z,0
2018-06-20T00:01:20.857Z,0
2018-06-20T00:02:01.428Z,0
2018-06-20T00:02:41.982Z,0
2018-06-20T00:03:22.557Z,0
2018-06-20T00:04:03.181Z,0
2018-06-20T00:04:43.865Z,0
2018-06-20T00:05:24.434Z,0
2018-06-20T00:06:04.987Z,0
2018-06-20T00:06:45.564Z,0
2018-06-20T00:07:26.180Z,0
2018-06-20T00:08:06.695Z,0
2018-06-20T00:08:47.284Z,0
2018-06-20T00:09:27.859Z,0
2018-06-20T00:10:08.427Z,0
2018-06-20T00:10:49.006Z,0
2018-06-20T00:11:29.566Z,0
2018-06-20T00:12:10.121Z,0
2018-06-20T00:12:50.667Z,0
2018-06-20T00:13:31.225Z,0
2018-06-20T00:14:11.763Z,0
2018-06-20T00:14:52.386Z,0
2018-06-20T00:15:32.959Z,0
2018-06-20T00:16:13.516Z,0
2018-06-20T00:16:54.090Z,0
2018-06-20T00:17:34.653Z,0
2018-06-20T00:18:15.227Z,0
2018-06-20T00:18:55.790Z,0
2018-06-20T00:19:36.413Z,0
2018-06-20T00:20:17.011Z,0
2018-06-20T00:20:57.611Z,0
2018-06-20T00:21:38.177Z,0
2018-06-20T00:22:18.744Z,0
2018-06-20T00:22:59.317Z,0
2018-06-20T00:23:39.878Z,0
2018-06-20T00:24:20.434Z,0
2018-06-20T00:25:01.009Z,0
2018-06-20T00:25:41.575Z,0
2018-06-20T00:26:22.179Z,0
2018-06-20T00:27:02.736Z,0
2018-06-20T00:27:43.291Z,0
2018-06-20T00:28:23.853Z,0
2018-06-20T00:29:04.415Z,0
2018-06-20T00:29:44.954Z,0
2018-06-20T00:30:25.526Z,0
2018-06-20T00:31:06.084Z,0
2018-06-20T00:31:46.641Z,0
2018-06-20T00:32:27.245Z,0
2018-06-20T00:33:07.800Z,0
2018-06-20T00:33:48.423Z,0
2018-06-20T00:34:28.981Z,0
2018-06-20T00:35:09.539Z,0
2018-06-20T00:35:50.110Z,0
2018-06-20T00:36:30.660Z,0
2018-06-20T00:37:11.218Z,0
2018-06-20T00:37:51.773Z,0
2018-06-20T00:38:32.320Z,0
2018-06-20T00:39:12.891Z,0
2018-06-20T00:39:53.657Z,0
2018-06-20T00:40:34.233Z,0
2018-06-20T00:41:14.789Z,0
2018-06-20T00:41:55.355Z,0
2018-06-20T00:42:35.925Z,0
2018-06-20T00:43:16.465Z,0
2018-06-20T00:43:57.034Z,0
2018-06-20T00:44:37.608Z,0
2018-06-20T00:45:18.172Z,0
2018-06-20T00:45:58.744Z,0
2018-06-20T00:46:39.313Z,0
2018-06-20T00:47:19.871Z,0
2018-06-20T00:48:00.465Z,0
2018-06-20T00:48:41.026Z,0
2018-06-20T00:49:21.590Z,0
2018-06-20T00:50:02.152Z,0
2018-06-20T00:50:42.708Z,0
2018-06-20T00:51:23.277Z,0
2018-06-20T00:52:03.848Z,0
2018-06-20T00:52:44.428Z,0
2018-06-20T00:53:24.989Z,0
2018-06-20T00:54:05.553Z,0
2018-06-20T00:54:46.112Z,0
2018-06-20T00:55:26.672Z,0
2018-06-20T00:56:07.229Z,0
2018-06-20T00:56:47.791Z,0
2018-06-20T00:57:28.398Z,0
2018-06-20T00:58:08.951Z,0
2018-06-20T00:58:49.527Z,0
2018-06-20T00:59:30.056Z,0
2018-06-20T01:00:10.626Z,0
2018-06-20T01:00:51.184Z,0
2018-06-20T01:01:31.756Z,0
2018-06-20T01:02:12.304Z,0
2018-06-20T01:02:52.872Z,0
2018-06-20T01:03:33.473Z,0
2018-06-20T01:04:14.026Z,0
2018-06-20T01:04:54.584Z,0
2018-06-20T01:05:35.130Z,0
2018-06-20T01:06:15.674Z,0
2018-06-20T01:06:56.261Z,0
2018-06-20T01:07:36.877Z,0
2018-06-20T01:08:17.408Z,0
2018-06-20T01:08:57.952Z,0
2018-06-20T01:09:38.535Z,0
2018-06-20T01:10:19.131Z,0
2018-06-20T01:10:59.712Z,0
2018-06-20T01:11:40.383Z,0
2018-06-20T01:12:20.830Z,0
2018-06-20T01:13:01.394Z,0
2018-06-20T01:13:41.951Z,0
2018-06-20T01:14:22.507Z,0
2018-06-20T01:15:03.086Z,0
2018-06-20T01:15:43.665Z,0
2018-06-20T01:16:24.230Z,0
2018-06-20T01:17:04.766Z,0
2018-06-20T01:17:45.346Z,0
2018-06-20T01:18:25.980Z,0
2018-06-20T01:19:06.530Z,0
2018-06-20T01:19:47.146Z,0
2018-06-20T01:20:27.653Z,0
2018-06-20T01:21:08.196Z,0
2018-06-20T01:21:48.753Z,0
2018-06-20T01:22:29.316Z,0
2018-06-20T01:23:09.864Z,0
2018-06-20T01:23:50.436Z,0
2018-06-20T01:24:30.989Z,0
2018-06-20T01:25:11.558Z,0
2018-06-20T01:25:52.125Z,0
2018-06-20T01:26:32.680Z,0
2018-06-20T01:27:13.264Z,0
2018-06-20T01:27:53.822Z,0
2018-06-20T01:28:34.385Z,0
2018-06-20T01:29:14.948Z,0
2018-06-20T01:29:55.516Z,0
2018-06-20T01:30:36.098Z,0
2018-06-20T01:31:16.676Z,0
2018-06-20T01:31:57.280Z,0
2018-06-20T01:32:37.826Z,0
2018-06-20T01:33:18.381Z,0
2018-06-20T01:33:59.084Z,0
2018-06-20T01:34:39.598Z,0
2018-06-20T01:35:20.156Z,0
2018-06-20T01:36:00.716Z,0
2018-06-20T01:36:41.264Z,0
2018-06-20T01:37:21.841Z,0
2018-06-20T01:38:02.395Z,0
2018-06-20T01:38:42.965Z,0
2018-06-20T01:39:23.561Z,0
2018-06-20T01:40:04.142Z,0
2018-06-20T01:40:44.687Z,0
2018-06-20T01:41:25.256Z,0
2018-06-20T01:42:05.814Z,0
2018-06-20T01:42:46.376Z,0
2018-06-20T01:43:26.948Z,0
2018-06-20T01:44:07.614Z,0
2018-06-20T01:44:48.181Z,0
2018-06-20T01:45:28.726Z,0
2018-06-20T01:46:09.305Z,0
2018-06-20T01:46:49.891Z,0
2018-06-20T01:47:30.429Z,0
2018-06-20T01:48:11.001Z,0
2018-06-20T01:48:51.571Z,0
2018-06-20T01:49:32.138Z,0
2018-06-20T01:50:12.691Z,0
2018-06-20T01:50:53.234Z,0
2018-06-20T01:51:33.786Z,0
2018-06-20T01:52:14.358Z,0
2018-06-20T01:52:55.064Z,0
2018-06-20T01:53:35.646Z,0
2018-06-20T01:54:16.212Z,0
2018-06-20T01:54:56.783Z,0
2018-06-20T01:55:37.343Z,0
2018-06-20T01:56:17.905Z,0
2018-06-20T01:56:58.476Z,0
2018-06-20T01:57:39.077Z,0
2018-06-20T01:58:19.646Z,0
2018-06-20T01:59:00.217Z,0
2018-06-20T01:59:40.783Z,0
2018-06-20T02:00:21.351Z,0
2018-06-20T02:01:01.921Z,0
2018-06-20T02:01:42.461Z,0
2018-06-20T02:02:23.029Z,0
2018-06-20T02:03:03.586Z,0
2018-06-20T02:03:44.131Z,0
2018-06-20T02:04:24.683Z,4
2018-06-20T02:05:05.248Z,4
2018-06-20T02:05:45.816Z,4
2018-06-20T02:06:26.380Z,4
2018-06-20T02:07:06.957Z,4
2018-06-20T02:07:47.515Z,0
2018-06-20T02:08:28.075Z,0
2018-06-20T02:09:08.636Z,0
2018-06-20T02:09:49.232Z,0
2018-06-20T02:10:29.792Z,4
2018-06-20T02:11:10.349Z,4
2018-06-20T02:11:50.933Z,4
2018-06-20T02:12:31.493Z,4
2018-06-20T02:13:12.068Z,0
2018-06-20T02:13:52.643Z,4
2018-06-20T02:14:33.205Z,4
2018-06-20T02:15:13.768Z,4
2018-06-20T02:15:54.320Z,4
2018-06-20T02:16:34.868Z,4
2018-06-20T02:17:15.419Z,4
2018-06-20T02:17:55.981Z,4
2018-06-20T02:18:36.543Z,8
2018-06-20T02:19:17.133Z,4
2018-06-20T02:19:57.709Z,4
2018-06-20T02:20:38.274Z,8
2018-06-20T02:21:18.836Z,4
2018-06-20T02:21:59.416Z,8
2018-06-20T02:22:39.976Z,8
2018-06-20T02:23:20.535Z,8
2018-06-20T02:24:01.143Z,8
2018-06-20T02:24:41.717Z,12
2018-06-20T02:25:22.294Z,12
2018-06-20T02:26:02.861Z,8
2018-06-20T02:26:43.435Z,12
2018-06-20T02:27:23.995Z,12
2018-06-20T02:28:04.552Z,12
2018-06-20T02:28:45.180Z,12
2018-06-20T02:29:25.700Z,16
2018-06-20T02:30:06.345Z,20
2018-06-20T02:30:46.876Z,20
2018-06-20T02:31:27.432Z,20
2018-06-20T02:32:08.007Z,24
2018-06-20T02:32:48.556Z,20
2018-06-20T02:33:29.123Z,20
2018-06-20T02:34:09.693Z,28
2018-06-20T02:34:50.267Z,28
2018-06-20T02:35:30.828Z,28
2018-06-20T02:36:11.371Z,32
2018-06-20T02:36:51.954Z,32
2018-06-20T02:37:32.592Z,36
2018-06-20T02:38:13.112Z,36
2018-06-20T02:38:53.703Z,40
2018-06-20T02:39:34.268Z,40
2018-06-20T02:40:14.841Z,40
2018-06-20T02:40:55.421Z,40
2018-06-20T02:41:35.956Z,44
2018-06-20T02:42:16.524Z,44
2018-06-20T02:42:57.084Z,44
2018-06-20T02:43:37.648Z,48
2018-06-20T02:44:18.207Z,48
2018-06-20T02:44:58.768Z,56
2018-06-20T02:45:39.341Z,60
2018-06-20T02:46:19.910Z,68
2018-06-20T02:47:00.483Z,72
2018-06-20T02:47:41.039Z,76
2018-06-20T02:48:21.589Z,80
2018-06-20T02:49:02.140Z,92
2018-06-20T02:49:42.692Z,96
2018-06-20T02:50:23.294Z,104
2018-06-20T02:51:03.864Z,112
2018-06-20T02:51:44.435Z,120
2018-06-20T02:52:24.996Z,124
2018-06-20T02:53:05.550Z,140
2018-06-20T02:53:46.096Z,148
2018-06-20T02:54:26.668Z,152
2018-06-20T02:55:07.239Z,152
2018-06-20T02:55:47.806Z,148
2018-06-20T02:56:28.368Z,152
2018-06-20T02:57:08.906Z,152
2018-06-20T02:57:49.481Z,152
2018-06-20T02:58:30.064Z,148
2018-06-20T02:59:10.616Z,140
2018-06-20T02:59:51.160Z,136
2018-06-20T03:00:31.735Z,136
2018-06-20T03:01:12.320Z,136
2018-06-20T03:01:52.901Z,136
2018-06-20T03:02:33.464Z,136
2018-06-20T03:03:14.001Z,132
2018-06-20T03:03:54.598Z,132
2018-06-20T03:04:35.154Z,136
2018-06-20T03:05:15.711Z,136
2018-06-20T03:05:56.310Z,136
2018-06-20T03:06:36.863Z,136
2018-06-20T03:07:17.427Z,136
2018-06-20T03:07:57.985Z,144
2018-06-20T03:08:38.635Z,148
2018-06-20T03:09:19.202Z,148
2018-06-20T03:09:59.786Z,152
2018-06-20T03:10:40.358Z,160
2018-06-20T03:11:20.912Z,168
2018-06-20T03:12:01.491Z,168
2018-06-20T03:12:42.047Z,172
2018-06-20T03:13:22.609Z,176
2018-06-20T03:14:03.198Z,184
2018-06-20T03:14:43.762Z,192
2018-06-20T03:15:24.318Z,196
2018-06-20T03:16:04.923Z,204
2018-06-20T03:16:45.460Z,208
2018-06-20T03:17:26.029Z,220
2018-06-20T03:18:06.604Z,224
2018-06-20T03:18:47.168Z,232
2018-06-20T03:19:27.730Z,240
2018-06-20T03:20:08.266Z,252
2018-06-20T03:20:48.876Z,256
2018-06-20T03:21:29.431Z,260
2018-06-20T03:22:09.985Z,268
2018-06-20T03:22:50.560Z,276
2018-06-20T03:23:31.241Z,280
2018-06-20T03:24:11.779Z,284
2018-06-20T03:24:52.358Z,284
2018-06-20T03:25:32.905Z,288
2018-06-20T03:26:13.464Z,296
2018-06-20T03:26:54.032Z,304
2018-06-20T03:27:34.638Z,312
2018-06-20T03:28:15.197Z,328
2018-06-20T03:28:55.767Z,328
2018-06-20T03:29:36.322Z,328
2018-06-20T03:30:16.887Z,324
2018-06-20T03:30:57.441Z,324
2018-06-20T03:31:37.997Z,324
2018-06-20T03:32:18.555Z,332
2018-06-20T03:32:59.129Z,336
2018-06-20T03:33:39.704Z,332
2018-06-20T03:34:20.294Z,340
2018-06-20T03:35:00.876Z,348
2018-06-20T03:35:41.427Z,356
2018-06-20T03:36:21.992Z,372
2018-06-20T03:37:02.544Z,392
2018-06-20T03:37:43.118Z,404
2018-06-20T03:38:23.719Z,412
2018-06-20T03:39:04.222Z,412
2018-06-20T03:39:44.768Z,424
2018-06-20T03:40:25.327Z,436
2018-06-20T03:41:05.881Z,452
2018-06-20T03:41:46.436Z,468
2018-06-20T03:42:27.001Z,480
2018-06-20T03:43:07.618Z,484
2018-06-20T03:43:48.201Z,484
2018-06-20T03:44:28.813Z,500
2018-06-20T03:45:09.379Z,500
2018-06-20T03:45:49.943Z,504
2018-06-20T03:46:30.495Z,520
2018-06-20T03:47:11.033Z,548
2018-06-20T03:47:51.587Z,564
2018-06-20T03:48:32.138Z,572
2018-06-20T03:49:12.687Z,584
2018-06-20T03:49:53.239Z,580
2018-06-20T03:50:33.827Z,576
2018-06-20T03:51:14.389Z,584
2018-06-20T03:51:54.962Z,608
2018-06-20T03:52:35.513Z,624
2018-06-20T03:53:16.087Z,624
2018-06-20T03:53:56.642Z,636
2018-06-20T03:54:37.221Z,652
2018-06-20T03:55:17.766Z,660
2018-06-20T03:55:58.318Z,676
2018-06-20T03:56:38.871Z,700
2018-06-20T03:57:19.433Z,728
2018-06-20T03:58:00.001Z,752
2018-06-20T03:58:40.602Z,772
2018-06-20T03:59:21.161Z,792
2018-06-20T04:00:01.769Z,792
2018-06-20T04:00:42.345Z,780
2018-06-20T04:01:22.980Z,780
2018-06-20T04:02:03.505Z,760
2018-06-20T04:02:44.066Z,768
2018-06-20T04:03:24.643Z,784
2018-06-20T04:04:05.173Z,820
2018-06-20T04:04:45.721Z,848
2018-06-20T04:05:26.299Z,868
2018-06-20T04:06:06.867Z,860
2018-06-20T04:06:47.433Z,860
2018-06-20T04:07:27.986Z,880
2018-06-20T04:08:08.546Z,880
2018-06-20T04:08:49.093Z,876
2018-06-20T04:09:29.661Z,876
2018-06-20T04:10:10.227Z,880
2018-06-20T04:10:50.804Z,884
2018-06-20T04:11:31.365Z,900
2018-06-20T04:12:11.924Z,916
2018-06-20T04:12:52.498Z,916
2018-06-20T04:13:33.046Z,912
2018-06-20T04:14:13.598Z,904
2018-06-20T04:14:54.160Z,904
2018-06-20T04:15:34.860Z,908
2018-06-20T04:16:15.433Z,920
2018-06-20T04:16:55.998Z,936
2018-06-20T04:17:36.548Z,956
2018-06-20T04:18:17.156Z,968
2018-06-20T04:18:57.659Z,964
2018-06-20T04:19:38.214Z,944
2018-06-20T04:20:18.779Z,928
2018-06-20T04:20:59.312Z,928
2018-06-20T04:21:40.109Z,940
2018-06-20T04:22:20.660Z,972
2018-06-20T04:23:01.211Z,1024
2018-06-20T04:23:41.760Z,1080
2018-06-20T04:24:22.295Z,1144
2018-06-20T04:25:02.846Z,1188
2018-06-20T04:25:43.435Z,1204
2018-06-20T04:26:24.004Z,1212
2018-06-20T04:27:04.635Z,1200
2018-06-20T04:27:45.203Z,1188
2018-06-20T04:28:25.830Z,1152
2018-06-20T04:29:06.402Z,1116
2018-06-20T04:29:46.979Z,1080
2018-06-20T04:30:27.541Z,1076
2018-06-20T04:31:08.107Z,1060
2018-06-20T04:31:48.661Z,1020
2018-06-20T04:32:29.208Z,988
2018-06-20T04:33:09.763Z,968
2018-06-20T04:33:50.372Z,956
2018-06-20T04:34:30.935Z,944
2018-06-20T04:35:11.552Z,948
2018-06-20T04:35:52.108Z,944
2018-06-20T04:36:32.705Z,932
2018-06-20T04:37:13.252Z,924
2018-06-20T04:37:53.794Z,916
2018-06-20T04:38:34.347Z,912
2018-06-20T04:39:15.036Z,908
2018-06-20T04:39:55.573Z,908
2018-06-20T04:40:36.133Z,904
2018-06-20T04:41:16.705Z,900
2018-06-20T04:41:57.288Z,896
2018-06-20T04:42:37.834Z,888
2018-06-20T04:43:18.372Z,888
2018-06-20T04:43:58.937Z,892
2018-06-20T04:44:39.555Z,888
2018-06-20T04:45:20.088Z,892
2018-06-20T04:46:00.661Z,892
2018-06-20T04:46:41.226Z,900
2018-06-20T04:47:21.812Z,908
2018-06-20T04:48:02.391Z,916
2018-06-20T04:48:42.987Z,920
2018-06-20T04:49:23.570Z,928
2018-06-20T04:50:04.114Z,924
2018-06-20T04:50:44.773Z,928
2018-06-20T04:51:25.341Z,940
2018-06-20T04:52:05.907Z,964
2018-06-20T04:52:46.487Z,996
2018-06-20T04:53:27.054Z,1032
2018-06-20T04:54:07.623Z,1068
2018-06-20T04:54:48.173Z,1100
2018-06-20T04:55:28.890Z,1128
2018-06-20T04:56:09.374Z,1160
2018-06-20T04:56:49.934Z,1180
2018-06-20T04:57:30.505Z,1204
2018-06-20T04:58:11.083Z,1224
2018-06-20T04:58:51.644Z,1232
2018-06-20T04:59:32.202Z,1236
2018-06-20T05:00:12.750Z,1236
2018-06-20T05:00:53.312Z,1228
2018-06-20T05:01:33.901Z,1228
2018-06-20T05:02:14.429Z,1220
2018-06-20T05:02:55.041Z,1216
2018-06-20T05:03:35.622Z,1220
2018-06-20T05:04:16.239Z,1196
2018-06-20T05:04:56.789Z,1168
2018-06-20T05:05:37.472Z,1152
2018-06-20T05:06:17.957Z,1148
2018-06-20T05:06:58.547Z,1152
2018-06-20T05:07:39.109Z,1156
2018-06-20T05:08:19.784Z,1172
2018-06-20T05:09:00.342Z,1184
2018-06-20T05:09:40.901Z,1192
2018-06-20T05:10:21.459Z,1196
2018-06-20T05:11:02.057Z,1204
2018-06-20T05:11:42.628Z,1212
2018-06-20T05:12:23.184Z,1216
2018-06-20T05:13:03.755Z,1208
2018-06-20T05:13:44.341Z,1200
2018-06-20T05:14:24.884Z,1188
2018-06-20T05:15:05.475Z,1180
2018-06-20T05:15:46.068Z,1172
2018-06-20T05:16:26.616Z,1164
2018-06-20T05:17:07.173Z,1160
2018-06-20T05:17:47.752Z,1156
2018-06-20T05:18:28.305Z,1156
2018-06-20T05:19:08.892Z,1144
2018-06-20T05:19:49.510Z,1136
2018-06-20T05:20:30.085Z,1116
2018-06-20T05:21:10.636Z,1104
2018-06-20T05:21:51.190Z,1092
2018-06-20T05:22:31.839Z,1084
2018-06-20T05:23:12.345Z,1072
2018-06-20T05:23:52.919Z,1072
2018-06-20T05:24:33.500Z,1060
2018-06-20T05:25:14.062Z,1056
2018-06-20T05:25:54.619Z,1048
2018-06-20T05:26:35.191Z,1048
2018-06-20T05:27:15.739Z,1048
2018-06-20T05:27:56.292Z,1044
2018-06-20T05:28:36.915Z,1044
2018-06-20T05:29:17.486Z,1040
2018-06-20T05:29:58.061Z,1044
2018-06-20T05:30:38.619Z,1052
2018-06-20T05:31:19.503Z,1064
2018-06-20T05:32:00.307Z,1080
2018-06-20T05:32:41.244Z,1092
2018-06-20T05:33:21.805Z,1104
2018-06-20T05:34:02.400Z,1116
2018-06-20T05:34:42.953Z,1132
2018-06-20T05:35:23.554Z,1140
2018-06-20T05:36:04.111Z,1148
2018-06-20T05:36:44.823Z,1152
2018-06-20T05:37:25.404Z,1152
2018-06-20T05:38:06.192Z,1148
2018-06-20T05:38:47.627Z,1148
2018-06-20T05:39:28.206Z,1152
2018-06-20T05:40:08.960Z,1160
2018-06-20T05:40:49.533Z,1168
2018-06-20T05:41:30.094Z,1176
2018-06-20T05:42:10.671Z,1188
2018-06-20T05:42:51.254Z,1208
2018-06-20T05:43:31.816Z,1224
2018-06-20T05:44:12.387Z,1240
2018-06-20T05:44:52.941Z,1260
2018-06-20T05:45:33.518Z,1280
2018-06-20T05:46:14.099Z,1300
2018-06-20T05:46:54.732Z,1320
2018-06-20T05:47:35.380Z,1344
2018-06-20T05:48:15.946Z,1360
2018-06-20T05:48:56.541Z,1380
2018-06-20T05:49:37.112Z,1408
2018-06-20T05:50:17.683Z,1424
2018-06-20T05:50:58.255Z,1444
2018-06-20T05:51:38.859Z,1460
2018-06-20T05:52:19.411Z,1472
2018-06-20T05:52:59.982Z,1484
2018-06-20T05:53:40.554Z,1484
2018-06-20T05:54:21.113Z,1496
2018-06-20T05:55:01.675Z,1520
2018-06-20T05:55:42.235Z,1548
2018-06-20T05:56:22.792Z,1580
2018-06-20T05:57:03.368Z,1608
2018-06-20T05:57:43.957Z,1632
2018-06-20T05:58:24.545Z,1652
2018-06-20T05:59:05.103Z,1672
2018-06-20T05:59:45.657Z,1688
2018-06-20T06:00:26.228Z,1704
2018-06-20T06:01:06.783Z,1708
2018-06-20T06:01:47.381Z,1712
2018-06-20T06:02:28.131Z,1708
2018-06-20T06:03:08.716Z,1712
2018-06-20T06:03:49.545Z,1712
2018-06-20T06:04:30.126Z,1712
2018-06-20T06:05:10.786Z,1724
2018-06-20T06:05:51.299Z,1736
2018-06-20T06:06:31.854Z,1764
2018-06-20T06:07:12.410Z,1796
2018-06-20T06:07:52.981Z,1856
2018-06-20T06:08:33.593Z,1888
2018-06-20T06:09:14.163Z,1928
2018-06-20T06:09:54.714Z,1968
2018-06-20T06:10:35.301Z,1996
2018-06-20T06:11:15.861Z,2012
2018-06-20T06:11:56.507Z,2028
2018-06-20T06:12:37.004Z,2040
2018-06-20T06:13:17.687Z,2040
2018-06-20T06:13:58.258Z,2032
2018-06-20T06:14:38.838Z,2028
2018-06-20T06:15:19.414Z,2016
2018-06-20T06:16:00.127Z,2012
2018-06-20T06:16:40.882Z,2020
2018-06-20T06:17:21.550Z,2036
2018-06-20T06:18:02.178Z,2048
2018-06-20T06:18:42.741Z,2060
2018-06-20T06:19:23.320Z,2072
2018-06-20T06:20:03.878Z,2076
2018-06-20T06:20:44.444Z,2088
2018-06-20T06:21:25.165Z,2108
2018-06-20T06:22:05.768Z,2144
2018-06-20T06:22:46.416Z,2192
2018-06-20T06:23:26.983Z,2252
2018-06-20T06:24:07.590Z,2312
2018-06-20T06:24:48.174Z,2368
2018-06-20T06:25:28.748Z,2424
2018-06-20T06:26:09.301Z,2476
2018-06-20T06:26:50.009Z,2524
2018-06-20T06:27:30.660Z,2568
2018-06-20T06:28:11.290Z,2612
2018-06-20T06:28:51.874Z,2628
2018-06-20T06:29:32.435Z,2636
2018-06-20T06:30:13.004Z,2648
2018-06-20T06:30:53.572Z,2664
2018-06-20T06:31:34.114Z,2700
2018-06-20T06:32:14.691Z,2716
2018-06-20T06:32:55.270Z,2728
2018-06-20T06:33:35.824Z,2740
2018-06-20T06:34:16.518Z,2760
2018-06-20T06:34:57.116Z,2808
2018-06-20T06:35:37.791Z,2872
2018-06-20T06:36:18.431Z,2924
2018-06-20T06:36:58.994Z,2960
2018-06-20T06:37:39.650Z,2996
2018-06-20T06:38:20.278Z,3024
2018-06-20T06:39:01.029Z,3064
2018-06-20T06:39:41.771Z,3096
2018-06-20T06:40:22.333Z,3140
2018-06-20T06:41:02.899Z,3188
2018-06-20T06:41:43.446Z,3308
2018-06-20T06:42:24.072Z,3316
2018-06-20T06:43:04.644Z,3344
2018-06-20T06:43:45.187Z,3392
2018-06-20T06:44:25.862Z,3500
2018-06-20T06:45:06.678Z,3632
2018-06-20T06:45:47.249Z,3796
2018-06-20T06:46:27.819Z,3832
2018-06-20T06:47:08.372Z,3992
2018-06-20T06:47:48.945Z,4140
2018-06-20T06:48:29.568Z,4216
2018-06-20T06:49:10.151Z,4312
2018-06-20T06:49:50.737Z,4384
2018-06-20T06:50:31.265Z,4424
2018-06-20T06:51:11.822Z,4492
2018-06-20T06:51:52.450Z,4628
2018-06-20T06:52:33.000Z,4784
2018-06-20T06:53:13.543Z,4884
2018-06-20T06:53:54.110Z,5000
2018-06-20T06:54:34.666Z,5140
2018-06-20T06:55:15.229Z,5228
2018-06-20T06:55:55.835Z,5320
2018-06-20T06:56:36.353Z,5348
2018-06-20T06:57:16.905Z,5324
2018-06-20T06:57:57.471Z,5300
2018-06-20T06:58:38.049Z,5384
2018-06-20T06:59:18.607Z,5536
2018-06-20T06:59:59.191Z,5744
2018-06-20T07:00:39.784Z,6044
2018-06-20T07:01:20.533Z,6420
2018-06-20T07:02:01.617Z,6688
2018-06-20T07:02:42.203Z,6760
2018-06-20T07:03:22.789Z,6808
2018-06-20T07:04:03.699Z,6892
2018-06-20T07:04:44.389Z,7024
2018-06-20T07:05:25.422Z,7336
2018-06-20T07:06:06.108Z,8020
2018-06-20T07:06:47.007Z,7756
2018-06-20T07:07:27.734Z,7984
2018-06-20T07:08:08.423Z,9460
2018-06-20T07:08:49.148Z,11128
2018-06-20T07:09:29.800Z,8512
2018-06-20T07:10:10.545Z,7816
2018-06-20T07:10:51.221Z,7520
2018-06-20T07:11:32.087Z,7304
2018-06-20T07:12:12.878Z,6904
2018-06-20T07:12:54.494Z,6652
2018-06-20T07:13:35.214Z,6420
2018-06-20T07:14:15.755Z,6272
2018-06-20T07:14:56.361Z,6244
2018-06-20T07:15:37.096Z,6380
2018-06-20T07:16:17.876Z,6800
2018-06-20T07:16:58.611Z,6620
2018-06-20T07:17:39.457Z,6532
2018-06-20T07:18:20.637Z,6500
2018-06-20T07:19:01.603Z,6664
2018-06-20T07:19:42.338Z,6956
2018-06-20T07:20:22.889Z,7316
2018-06-20T07:21:04.136Z,7660
2018-06-20T07:21:45.064Z,8112
2018-06-20T07:22:25.893Z,8520
2018-06-20T07:23:06.783Z,9160
2018-06-20T07:23:47.543Z,9920
2018-06-20T07:24:28.439Z,9048
2018-06-20T07:25:09.305Z,9316
2018-06-20T07:25:49.869Z,10368
2018-06-20T07:26:30.797Z,9980
2018-06-20T07:27:11.421Z,9616
2018-06-20T07:27:52.112Z,9600
2018-06-20T07:28:32.737Z,10020
2018-06-20T07:29:13.388Z,11012
2018-06-20T07:29:54.106Z,10612
2018-06-20T07:30:34.854Z,11336
2018-06-20T07:31:15.499Z,11968
2018-06-20T07:31:56.312Z,16420
2018-06-20T07:32:36.994Z,18624
2018-06-20T07:33:17.735Z,17856
2018-06-20T07:33:58.720Z,19840
2018-06-20T07:34:39.435Z,30304
2018-06-20T07:35:20.461Z,54912
2018-06-20T07:36:01.552Z,54368
2018-06-20T07:36:42.115Z,50368
2018-06-20T07:37:22.956Z,22816
2018-06-20T07:38:03.769Z,82496
2018-06-20T07:38:44.433Z,46432
2018-06-20T07:39:25.072Z,33696
2018-06-20T07:40:05.842Z,76704
2018-06-20T07:40:46.533Z,26112
2018-06-20T07:41:27.188Z,23808
2018-06-20T07:42:08.179Z,24704
2018-06-20T07:42:48.935Z,27072
2018-06-20T07:43:29.874Z,18752
2018-06-20T07:44:10.781Z,20736
2018-06-20T07:44:51.514Z,33120
2018-06-20T07:45:32.247Z,22208
2018-06-20T07:46:12.804Z,23936
2018-06-20T07:46:53.476Z,19808
2018-06-20T07:47:34.159Z,18400
2018-06-20T07:48:15.248Z,15984
2018-06-20T07:48:56.132Z,14932
2018-06-20T07:49:36.903Z,14108
2018-06-20T07:50:17.711Z,16184
2018-06-20T07:50:58.431Z,19232
2018-06-20T07:51:39.117Z,15756
2018-06-20T07:52:19.819Z,17056
2018-06-20T07:53:00.423Z,19136
2018-06-20T07:53:41.636Z,26368
2018-06-20T07:54:22.509Z,49568
2018-06-20T07:55:03.173Z,23648
2018-06-20T07:55:44.275Z,37312
2018-06-20T07:56:25.147Z,29952
2018-06-20T07:57:06.145Z,36544
2018-06-20T07:57:47.081Z,28160
2018-06-20T07:58:27.948Z,29984
2018-06-20T07:59:08.998Z,24736
2018-06-20T07:59:49.652Z,22432
2018-06-20T08:00:30.499Z,27232
2018-06-20T08:01:11.382Z,18784
2018-06-20T08:01:52.189Z,18464
2018-06-20T08:02:32.848Z,18048
2018-06-20T08:03:14.313Z,17376
2018-06-20T08:03:55.187Z,16608
2018-06-20T08:04:36.131Z,17888
2018-06-20T08:05:16.697Z,17824
2018-06-20T08:05:57.712Z,17408
2018-06-20T08:06:38.562Z,16672
2018-06-20T08:07:19.646Z,17024
2018-06-20T08:08:01.187Z,16704
2018-06-20T08:08:41.953Z,16512
2018-06-20T08:09:22.906Z,16448
2018-06-20T08:10:03.811Z,16928
2018-06-20T08:10:45.072Z,16864
2018-06-20T08:11:25.845Z,18112
2018-06-20T08:12:06.900Z,18976
2018-06-20T08:12:48.300Z,16016
2018-06-20T08:13:29.113Z,15120
2018-06-20T08:14:11.366Z,14620
2018-06-20T08:14:51.564Z,14096
2018-06-20T08:15:32.107Z,13660
2018-06-20T08:16:13.693Z,13476
2018-06-20T08:16:54.219Z,13332
2018-06-20T08:17:35.985Z,13036
2018-06-20T08:18:16.778Z,12792
2018-06-20T08:18:58.619Z,12780
2018-06-20T08:19:39.309Z,13008
2018-06-20T08:20:19.872Z,13084
2018-06-20T08:21:00.857Z,13284
2018-06-20T08:21:41.856Z,13864
2018-06-20T08:22:23.628Z,14644
2018-06-20T08:23:04.163Z,15384
2018-06-20T08:23:46.018Z,16896
2018-06-20T08:24:27.534Z,17376
2018-06-20T08:25:08.159Z,16736
2018-06-20T08:25:48.952Z,17120
2018-06-20T08:26:30.515Z,16672
2018-06-20T08:27:10.979Z,16640
2018-06-20T08:27:52.063Z,16076
2018-06-20T08:28:32.935Z,15728
2018-06-20T08:29:13.801Z,15708
2018-06-20T08:29:54.376Z,15576
2018-06-20T08:30:34.984Z,15104
2018-06-20T08:31:15.739Z,14876
2018-06-20T08:31:56.705Z,14724
2018-06-20T08:32:37.355Z,14896
2018-06-20T08:33:18.344Z,14752
2018-06-20T08:33:59.018Z,14464
2018-06-20T08:34:40.117Z,14176
2018-06-20T08:35:21.404Z,14172
2018-06-20T08:36:02.281Z,14040
2018-06-20T08:36:42.944Z,13824
2018-06-20T08:37:23.829Z,13496
2018-06-20T08:38:04.545Z,13160
2018-06-20T08:38:45.632Z,12972
2018-06-20T08:39:26.063Z,12888
2018-06-20T08:40:06.942Z,12796
2018-06-20T08:40:47.832Z,12588
2018-06-20T08:41:28.913Z,12376
2018-06-20T08:42:10.014Z,12284
2018-06-20T08:42:51.007Z,12172
2018-06-20T08:43:32.221Z,12352
2018-06-20T08:44:13.452Z,12484
2018-06-20T08:44:54.764Z,12448
2018-06-20T08:45:35.681Z,12424
2018-06-20T08:46:16.445Z,12300
2018-06-20T08:46:57.653Z,12164
2018-06-20T08:47:38.480Z,12136
2018-06-20T08:48:19.185Z,12132
2018-06-20T08:49:00.657Z,12228
2018-06-20T08:49:41.412Z,12340
2018-06-20T08:50:22.137Z,12316
2018-06-20T08:51:02.873Z,12332
2018-06-20T08:51:43.479Z,12372
2018-06-20T08:52:24.302Z,12380
2018-06-20T08:53:05.038Z,12468
2018-06-20T08:53:45.668Z,12528
2018-06-20T08:54:26.535Z,12248
2018-06-20T08:55:07.785Z,11948
2018-06-20T08:55:48.472Z,11628
2018-06-20T08:56:29.671Z,11316
2018-06-20T08:57:10.376Z,11156
2018-06-20T08:57:51.249Z,11140
2018-06-20T08:58:32.599Z,11136
2018-06-20T08:59:13.529Z,11104
2018-06-20T08:59:54.495Z,11144
2018-06-20T09:00:35.929Z,11232
2018-06-20T09:01:16.761Z,11240
2018-06-20T09:01:58.043Z,11224
2018-06-20T09:02:38.997Z,11184
2018-06-20T09:03:19.464Z,10944
2018-06-20T09:04:00.696Z,10816
2018-06-20T09:04:41.539Z,10668
2018-06-20T09:05:22.240Z,10576
2018-06-20T09:06:03.050Z,10544
2018-06-20T09:06:43.976Z,10568
2018-06-20T09:07:24.889Z,10440
2018-06-20T09:08:05.390Z,10608
2018-06-20T09:08:46.740Z,10712
2018-06-20T09:09:28.087Z,10940
2018-06-20T09:10:09.688Z,11072
2018-06-20T09:10:50.402Z,11040
2018-06-20T09:11:31.178Z,10948
2018-06-20T09:12:11.957Z,10756
2018-06-20T09:12:52.736Z,10540
2018-06-20T09:13:34.039Z,10428
2018-06-20T09:14:15.401Z,10364
2018-06-20T09:14:56.895Z,10492
2018-06-20T09:15:37.266Z,10592
2018-06-20T09:16:18.436Z,10572
2018-06-20T09:16:59.031Z,10556
2018-06-20T09:17:40.255Z,10532